Time;durP1;ratioP1;P1;durP2;ratioP2;P2;SDS_P1;SDS_P2;PMS_P1;PMS_P2;Temp;Humidity;BMP_temperature;BMP_pressure;BME280_temperature;BME280_humidity;BME280_pressure;Samples;Min_cycle;Max_cycle;Signal;HPM_P1;HPM_P2
2022/11/05 00:10:58;;;;;;;14.63;7.65;;;9.20;99.90;;;;;;5034368;28;20049;-83
2022/11/05 00:19:06;;;;;;;18.10;9.50;;;9.00;99.90;;;;;;5018384;28;20034;-83
2022/11/05 00:27:04;;;;;;;22.13;12.55;;;8.90;99.90;;;;;;5034211;28;20467;-82
2022/11/05 00:29:30;;;;;;;17.98;11.15;;;8.90;99.90;;;;;;5033756;28;20045;-83
2022/11/05 00:31:57;;;;;;;16.17;9.30;;;8.80;99.90;;;;;;5032556;28;20037;-83
2022/11/05 00:34:23;;;;;;;15.45;9.13;;;8.80;99.90;;;;;;5002366;28;20129;-82
2022/11/05 00:36:49;;;;;;;18.67;9.13;;;8.80;99.90;;;;;;5033684;28;20040;-83
2022/11/05 00:39:15;;;;;;;12.65;8.15;;;8.80;99.90;;;;;;5014839;28;20034;-82
2022/11/05 00:41:42;;;;;;;13.43;7.10;;;8.80;99.90;;;;;;5019126;28;20049;-82
2022/11/05 00:49:28;;;;;;;17.30;8.73;;;8.70;99.90;;;;;;5003303;28;20042;-82
2022/11/05 00:49:38;;;;;;;12.27;7.32;;;8.70;99.90;;;;;;5013600;28;20038;-82
2022/11/05 00:54:49;;;;;;;17.40;8.98;;;8.70;99.90;;;;;;5006656;28;20045;-82
2022/11/05 00:57:15;;;;;;;17.40;9.43;;;8.70;99.90;;;;;;5032735;28;20037;-82
2022/11/05 00:59:41;;;;;;;15.55;8.38;;;8.70;99.90;;;;;;5033262;28;20037;-82
2022/11/05 01:02:08;;;;;;;16.65;8.50;;;8.80;99.90;;;;;;5030466;28;20049;-81
2022/11/05 01:04:34;;;;;;;15.20;8.90;;;8.70;99.90;;;;;;4998757;28;20041;-81
2022/11/05 01:07:00;;;;;;;15.90;8.98;;;8.70;99.90;;;;;;5032574;28;20033;-82
2022/11/05 01:09:26;;;;;;;13.45;7.97;;;8.70;99.90;;;;;;5024069;28;20033;-82
2022/11/05 01:11:53;;;;;;;13.52;8.65;;;8.70;99.90;;;;;;4994917;28;20041;-82
2022/11/05 01:14:19;;;;;;;12.63;6.88;;;8.70;99.90;;;;;;5012732;28;20030;-82
2022/11/05 01:16:46;;;;;;;11.35;7.53;;;8.70;99.90;;;;;;5014197;28;20041;-82
2022/11/05 01:19:12;;;;;;;15.15;8.48;;;8.70;99.90;;;;;;5014267;28;20466;-82
2022/11/05 01:21:38;;;;;;;14.95;7.95;;;8.80;99.90;;;;;;5013457;28;20038;-83
2022/11/05 01:24:05;;;;;;;15.70;7.22;;;8.80;99.90;;;;;;5032338;28;20033;-82
2022/11/05 01:26:31;;;;;;;14.32;6.93;;;8.70;99.90;;;;;;5031661;28;20033;-82
2022/11/05 01:29:00;;;;;;;13.80;7.43;;;8.70;99.90;;;;;;5014362;28;20049;-82
2022/11/05 01:31:27;;;;;;;14.73;8.10;;;8.80;99.90;;;;;;5011719;28;20044;-82
2022/11/05 01:33:54;;;;;;;15.13;7.40;;;8.80;99.90;;;;;;5025476;28;20033;-82
2022/11/05 01:36:20;;;;;;;19.50;8.73;;;8.80;99.90;;;;;;5031148;28;20034;-82
2022/11/05 01:38:46;;;;;;;13.88;7.22;;;8.80;99.90;;;;;;5007421;28;20049;-82
2022/11/05 01:41:12;;;;;;;22.77;8.43;;;8.80;99.90;;;;;;5018640;28;20033;-82
2022/11/05 01:43:47;;;;;;;14.15;8.90;;;8.90;99.90;;;;;;5012525;28;20391;-82
2022/11/05 01:46:14;;;;;;;12.40;7.10;;;8.90;99.90;;;;;;4994408;28;20041;-82
2022/11/05 01:48:41;;;;;;;14.30;8.55;;;8.80;99.90;;;;;;5010582;28;20030;-82
2022/11/05 01:51:11;;;;;;;15.07;8.15;;;8.70;99.90;;;;;;5011595;28;20038;-82
2022/11/05 01:53:40;;;;;;;14.35;7.03;;;8.70;99.90;;;;;;5013227;28;20038;-82
2022/11/05 01:56:27;;;;;;;12.18;7.70;;;8.70;99.90;;;;;;5012766;28;20034;-83
2022/11/05 01:59:04;;;;;;;14.77;7.85;;;8.70;99.90;;;;;;5019894;28;20033;-83
2022/11/05 02:01:30;;;;;;;12.45;7.22;;;8.70;99.90;;;;;;5027937;28;20513;-83
2022/11/05 02:04:08;;;;;;;13.43;7.40;;;8.70;99.90;;;;;;4996196;28;20048;-82
2022/11/05 02:06:44;;;;;;;12.60;7.65;;;8.70;99.90;;;;;;5014160;28;20037;-82
2022/11/05 02:09:15;;;;;;;11.13;7.38;;;8.60;99.90;;;;;;4998835;28;20050;-83
2022/11/05 02:11:41;;;;;;;;;;;8.60;99.90;;;;;;5039634;28;20034;-82
2022/11/05 02:14:07;;;;;;;12.85;7.90;;;8.60;99.90;;;;;;5006825;28;19910;-83
2022/11/05 02:16:40;;;;;;;10.65;7.13;;;8.60;99.90;;;;;;5018861;28;20041;-82
2022/11/05 02:19:25;;;;;;;11.63;7.10;;;8.60;99.90;;;;;;4978257;28;20100;-83
2022/11/05 02:22:13;;;;;;;14.80;7.57;;;8.60;99.90;;;;;;4993078;28;20140;-82
2022/11/05 02:25:24;;;;;;;12.98;7.75;;;8.60;99.90;;;;;;5009762;28;20367;-82
2022/11/05 02:28:27;;;;;;;13.20;7.30;;;8.50;99.90;;;;;;4953931;28;20049;-82
2022/11/05 02:31:19;;;;;;;13.80;7.72;;;8.50;99.90;;;;;;4995653;28;20050;-82
2022/11/05 02:34:19;;;;;;;13.60;7.95;;;8.50;99.90;;;;;;5032138;28;20096;-82
2022/11/05 02:37:00;;;;;;;12.48;7.80;;;8.50;99.90;;;;;;5013386;28;20471;-82
2022/11/05 02:39:47;;;;;;;12.80;7.25;;;8.50;99.90;;;;;;5019329;28;20033;-82
2022/11/05 02:42:33;;;;;;;14.25;7.65;;;8.50;99.90;;;;;;4976875;28;20038;-82
2022/11/05 02:45:24;;;;;;;14.63;8.02;;;8.50;99.90;;;;;;5015571;28;20038;-82
2022/11/05 02:47:54;;;;;;;15.18;8.00;;;8.60;99.90;;;;;;5020143;28;20041;-82
2022/11/05 02:50:25;;;;;;;14.95;8.65;;;8.60;99.90;;;;;;5034126;28;20037;-82
2022/11/05 02:53:10;;;;;;;17.17;8.85;;;8.60;99.90;;;;;;5044036;28;20042;-82
2022/11/05 02:55:45;;;;;;;16.75;8.68;;;8.60;99.90;;;;;;5040447;28;20030;-82
2022/11/05 02:58:11;;;;;;;17.27;9.40;;;8.60;99.90;;;;;;4995064;28;20069;-82
2022/11/05 03:00:40;;;;;;;18.55;9.15;;;8.50;99.90;;;;;;4993879;28;20050;-82
2022/11/05 03:03:28;;;;;;;20.00;9.40;;;8.60;99.90;;;;;;5012424;28;20037;-82
2022/11/05 03:06:18;;;;;;;23.48;11.55;;;8.60;99.90;;;;;;5012659;28;20387;-82
2022/11/05 03:09:18;;;;;;;21.05;10.75;;;8.60;99.90;;;;;;5029621;28;20383;-82
2022/11/05 03:11:56;;;;;;;23.90;11.95;;;8.50;99.90;;;;;;4995433;28;20041;-82
2022/11/05 03:14:31;;;;;;;21.65;11.60;;;8.50;99.90;;;;;;5030509;28;20463;-82
2022/11/05 03:17:15;;;;;;;24.88;12.57;;;8.50;99.90;;;;;;5033417;28;20455;-82
2022/11/05 03:19:53;;;;;;;28.00;13.38;;;8.40;99.90;;;;;;5016843;28;20087;-82
2022/11/05 03:22:24;;;;;;;22.45;12.35;;;8.40;99.90;;;;;;4973672;28;20053;-82
2022/11/05 03:25:01;;;;;;;23.73;12.52;;;8.40;99.90;;;;;;4997964;28;20046;-82
2022/11/05 03:27:36;;;;;;;21.90;13.73;;;8.40;99.90;;;;;;4997144;28;20050;-82
2022/11/05 03:30:06;;;;;;;23.80;11.90;;;8.50;99.90;;;;;;5014953;28;20398;-82
2022/11/05 03:32:35;;;;;;;25.23;13.23;;;8.50;99.90;;;;;;4996404;28;20034;-82
2022/11/05 03:35:09;;;;;;;23.10;12.32;;;8.60;99.90;;;;;;4997775;28;20025;-82
2022/11/05 03:37:38;;;;;;;24.83;12.52;;;8.60;99.90;;;;;;5015607;28;20042;-82
2022/11/05 03:40:07;;;;;;;24.77;12.55;;;8.50;99.90;;;;;;5014321;28;20050;-81
2022/11/05 03:42:37;;;;;;;22.17;13.23;;;8.50;99.90;;;;;;4996816;28;20049;-82
2022/11/05 03:45:10;;;;;;;24.83;12.82;;;8.50;99.90;;;;;;5015327;28;20032;-81
2022/11/05 03:47:39;;;;;;;24.70;12.70;;;8.50;99.90;;;;;;5014970;28;20359;-81
2022/11/05 03:50:27;;;;;;;24.33;11.23;;;8.60;99.90;;;;;;4996924;28;20038;-82
2022/11/05 03:52:59;;;;;;;22.80;11.30;;;8.50;99.90;;;;;;5015334;28;20105;-82
2022/11/05 03:55:41;;;;;;;21.17;11.23;;;8.60;99.90;;;;;;5015939;28;20029;-83
2022/11/05 03:58:09;;;;;;;17.80;9.88;;;8.60;99.90;;;;;;5015880;28;20058;-82
2022/11/05 04:00:35;;;;;;;26.98;11.40;;;8.60;99.90;;;;;;5031399;28;20041;-81
2022/11/05 04:03:01;;;;;;;17.85;9.57;;;8.60;99.90;;;;;;5033863;28;20037;-82
2022/11/05 04:05:28;;;;;;;19.33;7.88;;;8.50;99.90;;;;;;5032896;28;20044;-81
2022/11/05 04:13:23;;;;;;;8.95;5.25;;;8.40;99.90;;;;;;5014151;28;20034;-80
2022/11/05 04:18:39;;;;;;;7.57;4.20;;;8.40;99.90;;;;;;5014828;28;20041;-81
2022/11/05 04:24:10;;;;;;;8.85;4.97;;;8.30;99.90;;;;;;5014594;28;20044;-82
2022/11/05 04:26:42;;;;;;;10.98;5.35;;;8.30;99.90;;;;;;4996544;28;20462;-82
2022/11/05 04:31:54;;;;;;;9.70;4.05;;;8.30;99.90;;;;;;5019888;28;20467;-82
2022/11/05 04:34:23;;;;;;;6.93;4.03;;;8.30;99.90;;;;;;5009665;28;20072;-82
2022/11/05 04:36:51;;;;;;;8.02;4.70;;;8.30;99.90;;;;;;5032946;28;20360;-82
2022/11/05 04:39:18;;;;;;;7.65;5.40;;;8.30;99.90;;;;;;5014116;28;20399;-81
2022/11/05 04:41:48;;;;;;;10.23;5.72;;;8.30;99.90;;;;;;5031169;28;20386;-81
2022/11/05 04:44:15;;;;;;;8.68;4.78;;;8.20;99.90;;;;;;5017584;28;20030;-81
2022/11/05 04:46:42;;;;;;;10.13;3.85;;;8.20;99.90;;;;;;4996588;28;20094;-82
2022/11/05 04:49:08;;;;;;;7.60;3.85;;;8.20;99.90;;;;;;5014092;28;20038;-82
2022/11/05 04:51:34;;;;;;;8.52;4.40;;;8.20;99.90;;;;;;4994197;28;20048;-81
2022/11/05 04:54:01;;;;;;;7.88;4.03;;;8.20;99.90;;;;;;5002368;28;20048;-81
2022/11/05 04:56:27;;;;;;;9.90;3.85;;;8.20;99.90;;;;;;5032060;28;20037;-81
2022/11/05 04:58:53;;;;;;;7.05;3.28;;;8.20;99.90;;;;;;5007301;28;20118;-81
2022/11/05 05:01:21;;;;;;;6.35;3.33;;;8.10;99.90;;;;;;4998257;28;20049;-82
2022/11/05 05:03:52;;;;;;;5.63;2.95;;;8.10;99.90;;;;;;5003595;28;20502;-82
2022/11/05 05:06:19;;;;;;;4.80;2.72;;;8.10;99.90;;;;;;5006580;28;20034;-82
2022/11/05 05:08:46;;;;;;;3.90;2.42;;;8.10;99.90;;;;;;5013918;28;20030;-81
2022/11/05 05:11:15;;;;;;;4.90;3.17;;;8.10;99.90;;;;;;5030557;28;20061;-82
2022/11/05 05:13:41;;;;;;;6.10;4.10;;;8.10;99.90;;;;;;5014157;28;20045;-82
2022/11/05 05:16:15;;;;;;;7.00;3.42;;;8.00;99.90;;;;;;5032387;28;20033;-81
2022/11/05 05:18:41;;;;;;;5.63;2.75;;;8.00;99.90;;;;;;5032214;28;20041;-81
2022/11/05 05:23:53;;;;;;;7.65;3.13;;;8.10;99.90;;;;;;5015406;28;20034;-81
2022/11/05 05:26:19;;;;;;;6.07;3.05;;;8.00;99.90;;;;;;5021147;28;20030;-82
2022/11/05 05:28:45;;;;;;;5.75;2.92;;;8.00;99.90;;;;;;5005232;28;20069;-81
2022/11/05 05:31:13;;;;;;;9.88;4.70;;;8.00;99.90;;;;;;4977908;28;20074;-81
2022/11/05 05:33:40;;;;;;;10.32;4.57;;;8.00;99.90;;;;;;4975993;28;20050;-82
2022/11/05 05:36:06;;;;;;;6.97;2.53;;;8.00;99.90;;;;;;4993467;28;20473;-81
2022/11/05 05:38:32;;;;;;;4.68;2.63;;;8.00;99.90;;;;;;4969515;28;20691;-81
2022/11/05 05:40:59;;;;;;;5.75;2.78;;;8.00;99.90;;;;;;4998573;28;20379;-81
2022/11/05 05:43:29;;;;;;;6.07;2.95;;;8.00;99.90;;;;;;5012155;28;20051;-82
2022/11/05 05:45:56;;;;;;;5.55;2.65;;;8.00;99.90;;;;;;5012667;28;20038;-81
2022/11/05 05:48:23;;;;;;;7.53;2.92;;;8.00;99.90;;;;;;5011406;28;20064;-81
2022/11/05 05:50:49;;;;;;;3.97;1.88;;;8.00;99.90;;;;;;4993483;28;20037;-81
2022/11/05 05:53:15;;;;;;;6.90;3.55;;;8.00;99.90;;;;;;5011085;28;20030;-81
2022/11/05 05:55:41;;;;;;;5.60;1.95;;;8.00;99.90;;;;;;5011905;28;20034;-81
2022/11/05 05:58:07;;;;;;;6.18;2.95;;;7.90;99.90;;;;;;5001551;28;20031;-81
2022/11/05 06:00:34;;;;;;;4.78;2.55;;;8.00;99.90;;;;;;4990894;28;20448;-81
2022/11/05 06:03:00;;;;;;;4.18;1.90;;;8.00;99.90;;;;;;4993359;28;20034;-81
2022/11/05 06:05:26;;;;;;;4.40;2.13;;;8.00;99.90;;;;;;5002103;28;20045;-81
2022/11/05 06:07:56;;;;;;;7.05;2.55;;;7.90;99.90;;;;;;5011855;28;20029;-81
2022/11/05 06:10:23;;;;;;;4.95;2.30;;;7.90;99.90;;;;;;5009353;28;20383;-81
2022/11/05 06:12:50;;;;;;;4.50;2.20;;;7.90;99.90;;;;;;4978000;28;20050;-81
2022/11/05 06:15:17;;;;;;;2.75;1.60;;;7.90;99.90;;;;;;5008769;28;20043;-81
2022/11/05 06:17:43;;;;;;;3.53;1.80;;;7.90;99.90;;;;;;5002069;28;20045;-81
2022/11/05 06:20:11;;;;;;;7.00;2.88;;;7.90;99.90;;;;;;5003331;28;20057;-81
2022/11/05 06:22:38;;;;;;;7.60;3.05;;;7.90;99.90;;;;;;4992789;28;20038;-81
2022/11/05 06:25:05;;;;;;;5.97;2.78;;;7.90;99.90;;;;;;5006966;28;20029;-81
2022/11/05 06:27:31;;;;;;;5.82;2.45;;;7.90;99.90;;;;;;5003375;28;20045;-81
2022/11/05 06:29:58;;;;;;;4.95;2.38;;;7.90;99.90;;;;;;5013394;28;20077;-81
2022/11/05 06:32:24;;;;;;;5.20;2.75;;;7.90;99.90;;;;;;5030289;28;20390;-81
2022/11/05 06:34:50;;;;;;;6.97;3.35;;;7.90;99.90;;;;;;5014742;28;20391;-81
2022/11/05 06:37:16;;;;;;;8.68;3.83;;;7.90;99.90;;;;;;5013282;28;20025;-81
2022/11/05 06:39:42;;;;;;;6.50;2.92;;;7.90;99.90;;;;;;5010805;28;20057;-81
2022/11/05 06:42:09;;;;;;;5.03;3.05;;;8.00;99.90;;;;;;5032333;28;20029;-81
2022/11/05 06:44:35;;;;;;;6.35;2.97;;;8.00;99.90;;;;;;5013676;28;20041;-81
2022/11/05 06:47:01;;;;;;;7.38;3.30;;;8.00;99.90;;;;;;5014702;28;20034;-81
2022/11/05 06:49:27;;;;;;;6.80;3.75;;;8.00;99.90;;;;;;5013169;28;20046;-81
2022/11/05 06:51:53;;;;;;;9.40;3.60;;;8.00;99.90;;;;;;5015232;28;20077;-81
2022/11/05 06:54:20;;;;;;;6.57;3.58;;;8.00;99.90;;;;;;5016261;28;20038;-81
2022/11/05 06:56:46;;;;;;;9.68;4.25;;;8.10;99.90;;;;;;5012627;28;20057;-81
2022/11/05 06:59:12;;;;;;;8.63;3.40;;;8.10;99.90;;;;;;5010015;28;20045;-81
2022/11/05 07:01:38;;;;;;;9.15;4.90;;;8.10;99.90;;;;;;5015176;28;20057;-81
2022/11/05 07:04:04;;;;;;;8.15;4.28;;;8.10;99.90;;;;;;5024522;28;20034;-81
2022/11/05 07:06:31;;;;;;;6.57;3.83;;;8.10;99.90;;;;;;5021689;28;20029;-81
2022/11/05 07:08:58;;;;;;;34.83;18.75;;;8.10;99.90;;;;;;5055033;28;20041;-81
2022/11/05 07:11:24;;;;;;;69.35;35.70;;;8.20;99.90;;;;;;5034749;28;20067;-80
2022/11/05 07:13:50;;;;;;;34.08;15.98;;;8.20;99.90;;;;;;5018514;28;20504;-80
2022/11/05 07:16:16;;;;;;;24.48;14.60;;;8.20;99.90;;;;;;5016112;28;20030;-81
2022/11/05 07:18:42;;;;;;;13.95;9.48;;;8.20;99.90;;;;;;5015121;28;20030;-81
2022/11/05 07:21:09;;;;;;;9.43;5.80;;;8.20;99.90;;;;;;4998918;28;20033;-81
2022/11/05 07:23:35;;;;;;;10.98;6.50;;;8.30;99.90;;;;;;5014886;28;20103;-81
2022/11/05 07:26:01;;;;;;;13.25;8.43;;;8.20;99.90;;;;;;4998120;28;20101;-81
2022/11/05 07:28:27;;;;;;;33.05;19.00;;;8.30;99.90;;;;;;5013633;28;20466;-81
2022/11/05 07:30:53;;;;;;;26.85;15.45;;;8.30;99.90;;;;;;5016090;28;20494;-82
2022/11/05 07:33:19;;;;;;;26.13;15.82;;;8.30;99.90;;;;;;4992467;28;20577;-82
2022/11/05 07:35:46;;;;;;;110.03;64.07;;;8.40;99.90;;;;;;5015441;28;20029;-81
2022/11/05 07:38:12;;;;;;;82.22;47.85;;;8.40;99.90;;;;;;4979999;28;20037;-81
2022/11/05 07:40:38;;;;;;;47.65;28.75;;;8.40;99.90;;;;;;4997023;28;20037;-81
2022/11/05 07:43:04;;;;;;;30.00;16.17;;;8.40;99.90;;;;;;5015242;28;20037;-81
2022/11/05 07:45:30;;;;;;;12.82;7.63;;;8.40;99.90;;;;;;5003677;28;20387;-81
2022/11/05 07:47:59;;;;;;;9.05;4.93;;;8.40;99.90;;;;;;5013754;28;20047;-81
2022/11/05 07:50:28;;;;;;;11.65;5.30;;;8.40;99.90;;;;;;4987036;28;20048;-80
2022/11/05 07:53:01;;;;;;;8.27;4.65;;;8.40;99.90;;;;;;5015876;28;20058;-81
2022/11/05 07:55:27;;;;;;;8.40;5.40;;;8.40;99.90;;;;;;5031874;28;20029;-81
2022/11/05 07:57:53;;;;;;;10.38;5.00;;;8.40;99.90;;;;;;5013567;28;20029;-81
2022/11/05 08:00:22;;;;;;;8.63;5.50;;;8.50;99.90;;;;;;5014168;28;20041;-81
2022/11/05 08:02:59;;;;;;;8.63;5.22;;;8.50;99.90;;;;;;4996587;28;20036;-81
2022/11/05 08:05:27;;;;;;;7.68;5.10;;;8.60;99.90;;;;;;4980210;28;20490;-81
2022/11/05 08:07:57;;;;;;;8.18;5.35;;;8.60;99.90;;;;;;4979273;28;20049;-82
2022/11/05 08:10:23;;;;;;;9.43;5.95;;;8.70;99.90;;;;;;5028112;28;20049;-81
2022/11/05 08:12:52;;;;;;;10.50;6.47;;;8.70;99.90;;;;;;5033435;28;20041;-81
2022/11/05 08:15:19;;;;;;;10.00;5.35;;;8.60;99.90;;;;;;5015617;28;20037;-81
2022/11/05 08:17:45;;;;;;;8.57;5.22;;;8.70;99.90;;;;;;5032096;28;20097;-81
2022/11/05 08:20:12;;;;;;;10.32;6.22;;;8.70;99.90;;;;;;5033809;28;20045;-81
2022/11/05 08:22:45;;;;;;;11.65;5.63;;;8.90;99.90;;;;;;5008779;28;20114;-82
2022/11/05 08:25:12;;;;;;;9.38;6.07;;;9.00;99.90;;;;;;5014412;28;20034;-81
2022/11/05 08:27:39;;;;;;;9.52;5.88;;;9.00;99.90;;;;;;5012255;28;20022;-81
2022/11/05 08:30:06;;;;;;;12.05;5.03;;;9.20;99.90;;;;;;4997118;28;20050;-82
2022/11/05 08:32:33;;;;;;;13.88;6.35;;;9.20;99.90;;;;;;4996190;28;20053;-81
2022/11/05 08:34:59;;;;;;;11.27;5.28;;;9.20;99.90;;;;;;5012598;28;20041;-80
2022/11/05 08:37:25;;;;;;;10.07;4.82;;;9.20;99.90;;;;;;4998720;28;20030;-82
2022/11/05 08:39:52;;;;;;;13.95;4.68;;;9.20;99.90;;;;;;5034245;28;20044;-83
2022/11/05 08:42:18;;;;;;;10.15;4.93;;;9.30;99.90;;;;;;5014298;28;20022;-83
2022/11/05 08:44:44;;;;;;;9.32;4.63;;;9.20;99.90;;;;;;5026377;28;20033;-81
2022/11/05 08:47:10;;;;;;;12.10;6.30;;;9.10;99.90;;;;;;5021694;28;20042;-84
2022/11/05 08:49:36;;;;;;;9.48;4.95;;;9.10;99.90;;;;;;5032173;28;20068;-83
2022/11/05 08:52:03;;;;;;;10.80;6.18;;;9.10;99.90;;;;;;5009183;28;20052;-84
2022/11/05 08:54:29;;;;;;;9.65;5.45;;;9.10;99.90;;;;;;5038866;28;20030;-83
2022/11/05 08:56:55;;;;;;;8.98;5.43;;;9.20;99.90;;;;;;5034117;28;20029;-83
2022/11/05 08:59:21;;;;;;;11.30;6.93;;;9.20;99.90;;;;;;5021142;28;20048;-82
2022/11/05 09:01:49;;;;;;;9.60;4.60;;;9.10;99.90;;;;;;5009744;28;20060;-85
2022/11/05 09:04:15;;;;;;;8.93;4.50;;;9.20;99.90;;;;;;5019048;28;20033;-84
2022/11/05 09:06:41;;;;;;;9.65;6.47;;;9.30;99.90;;;;;;5008403;28;20049;-84
2022/11/05 09:09:07;;;;;;;8.18;5.03;;;9.30;99.90;;;;;;5004421;28;20033;-84
2022/11/05 09:11:33;;;;;;;8.27;4.88;;;9.50;99.90;;;;;;5029568;28;20040;-84
2022/11/05 09:14:00;;;;;;;8.05;5.53;;;9.60;99.90;;;;;;5039599;28;20037;-84
2022/11/05 09:16:26;;;;;;;9.93;5.20;;;9.80;99.90;;;;;;5015404;28;20034;-83
2022/11/05 09:18:52;;;;;;;6.90;4.65;;;10.00;99.90;;;;;;5014672;28;20471;-84
2022/11/05 09:21:18;;;;;;;15.10;7.05;;;9.90;99.90;;;;;;5014145;28;20045;-83
2022/11/05 09:23:45;;;;;;;10.43;6.15;;;9.80;99.90;;;;;;5035283;28;20041;-84
2022/11/05 09:26:12;;;;;;;7.72;5.32;;;9.80;99.90;;;;;;5025939;28;20029;-84
2022/11/05 09:28:39;;;;;;;9.40;4.95;;;9.60;99.90;;;;;;4992918;28;20052;-78
2022/11/05 09:31:07;;;;;;;10.50;5.50;;;9.60;99.90;;;;;;5014951;28;20049;-83
2022/11/05 09:33:35;;;;;;;9.50;6.03;;;9.70;99.90;;;;;;4997181;28;20026;-83
2022/11/05 09:36:02;;;;;;;7.20;4.97;;;9.70;99.90;;;;;;5014777;28;20049;-83
2022/11/05 09:38:29;;;;;;;9.60;5.40;;;9.80;99.90;;;;;;5019816;28;20037;-83
2022/11/05 09:41:06;;;;;;;9.00;5.28;;;9.90;99.90;;;;;;4995913;28;20041;-82
2022/11/05 09:43:35;;;;;;;10.60;5.97;;;9.90;99.90;;;;;;4996106;28;20037;-83
2022/11/05 09:46:08;;;;;;;8.20;5.75;;;10.00;99.90;;;;;;5002552;28;20048;-83
2022/11/05 09:48:36;;;;;;;9.77;5.50;;;9.90;99.90;;;;;;4986985;28;20046;-83
2022/11/05 09:51:04;;;;;;;10.38;4.75;;;10.10;99.90;;;;;;5019461;28;20155;-85
2022/11/05 09:53:31;;;;;;;12.52;6.72;;;10.30;99.90;;;;;;4993532;28;20038;-83
2022/11/05 09:55:59;;;;;;;15.00;6.05;;;10.30;99.90;;;;;;5010760;28;20040;-82
2022/11/05 09:58:46;;;;;;;9.93;4.68;;;10.50;99.90;;;;;;5025657;28;20037;-84
2022/11/05 10:01:20;;;;;;;7.60;5.70;;;10.70;99.90;;;;;;5008215;28;20041;-83
2022/11/05 10:03:49;;;;;;;9.40;5.28;;;10.80;99.90;;;;;;5014964;28;20033;-84
2022/11/05 10:06:22;;;;;;;13.07;5.80;;;10.70;99.90;;;;;;5016680;28;20030;-83
2022/11/05 10:09:08;;;;;;;6.25;4.38;;;10.30;99.90;;;;;;5014768;28;20022;-82
2022/11/05 10:11:43;;;;;;;11.63;4.88;;;10.20;99.90;;;;;;5000993;28;20106;-85
2022/11/05 10:14:24;;;;;;;8.48;4.65;;;10.10;99.90;;;;;;5012646;28;20033;-84
2022/11/05 10:17:04;;;;;;;10.75;5.78;;;10.40;99.90;;;;;;5011666;28;20030;-83
2022/11/05 10:19:43;;;;;;;10.10;5.38;;;10.40;99.90;;;;;;5012689;28;20036;-84
2022/11/05 10:22:17;;;;;;;14.52;6.28;;;10.50;99.90;;;;;;5012034;28;20042;-84
2022/11/05 10:24:46;;;;;;;8.23;4.78;;;10.60;99.90;;;;;;5012356;28;20029;-84
2022/11/05 10:27:22;;;;;;;7.68;4.72;;;10.70;99.90;;;;;;5012714;28;20490;-84
2022/11/05 10:29:49;;;;;;;11.20;5.47;;;10.90;99.90;;;;;;5013799;28;20046;-84
2022/11/05 10:32:31;;;;;;;11.15;5.15;;;10.80;99.90;;;;;;5012579;28;20037;-83
2022/11/05 10:35:00;;;;;;;7.60;4.57;;;10.90;99.90;;;;;;5018377;28;20038;-84
2022/11/05 10:37:27;;;;;;;11.23;4.93;;;11.10;99.90;;;;;;5031814;28;20400;-84
2022/11/05 10:39:54;;;;;;;11.30;4.82;;;11.30;99.90;;;;;;5032508;28;20577;-83
2022/11/05 10:42:42;;;;;;;11.20;4.85;;;11.10;99.90;;;;;;5018371;28;20034;-85
2022/11/05 10:45:27;;;;;;;5.93;4.65;;;10.90;99.90;;;;;;5019351;28;20026;-84
2022/11/05 10:48:05;;;;;;;7.72;4.38;;;10.70;99.90;;;;;;5002185;28;20049;-84
2022/11/05 10:50:31;;;;;;;7.10;4.47;;;10.60;99.90;;;;;;5001783;28;20045;-85
2022/11/05 10:52:59;;;;;;;16.33;4.38;;;10.60;99.90;;;;;;5001586;28;20042;-84
2022/11/05 10:55:25;;;;;;;5.80;4.05;;;10.80;99.90;;;;;;5002038;28;20034;-84
2022/11/05 10:57:52;;;;;;;8.75;4.10;;;11.10;99.90;;;;;;5026404;28;20452;-84
2022/11/05 11:00:21;;;;;;;7.28;3.80;;;11.20;99.90;;;;;;4990232;28;20049;-84
2022/11/05 11:02:51;;;;;;;8.60;4.03;;;11.20;99.90;;;;;;5017107;28;20060;-86
2022/11/05 11:05:31;;;;;;;8.50;3.50;;;11.10;98.80;;;;;;5000108;28;20037;-86
2022/11/05 11:08:12;;;;;;;10.00;3.70;;;11.20;96.80;;;;;;5025603;28;20037;-86
2022/11/05 11:10:51;;;;;;;6.65;3.67;;;11.00;92.70;;;;;;4997599;28;20061;-80
2022/11/05 11:13:23;;;;;;;6.88;3.90;;;11.30;99.90;;;;;;5026170;28;20041;-80
2022/11/05 11:15:50;;;;;;;11.25;5.45;;;11.20;97.20;;;;;;5024397;28;20030;-84
2022/11/05 11:18:36;;;;;;;9.63;6.00;;;11.20;99.90;;;;;;5012896;28;20034;-84
2022/11/05 11:21:19;;;;;;;14.23;5.72;;;11.50;98.90;;;;;;5039745;28;20038;-85
2022/11/05 11:23:56;;;;;;;9.32;5.30;;;11.50;95.70;;;;;;5022165;28;20101;-86
2022/11/05 11:26:25;;;;;;;6.30;4.38;;;11.60;93.80;;;;;;5034714;28;20038;-88
2022/11/05 11:28:58;;;;;;;6.93;3.70;;;11.60;86.40;;;;;;5017432;28;20057;-83
2022/11/05 11:31:27;;;;;;;7.22;3.45;;;11.40;81.60;;;;;;5017371;28;20041;-85
2022/11/05 11:34:01;;;;;;;8.63;3.60;;;11.40;96.60;;;;;;5014832;28;20060;-83
2022/11/05 11:36:40;;;;;;;6.00;3.38;;;11.60;89.40;;;;;;5014107;28;20040;-83
2022/11/05 11:39:11;;;;;;;5.93;3.67;;;11.50;84.70;;;;;;5028229;28;20359;-85
2022/11/05 11:41:42;;;;;;;12.38;3.70;;;11.50;82.70;;;;;;5009206;28;20037;-84
2022/11/05 11:44:18;;;;;;;7.95;3.17;;;11.40;86.50;;;;;;5008603;28;20053;-84
2022/11/05 11:46:48;;;;;;;6.38;3.08;;;11.10;87.90;;;;;;5028688;28;20033;-84
2022/11/05 11:49:52;;;;;;;5.85;2.83;;;10.90;90.40;;;;;;5026953;28;20398;-84
2022/11/05 11:52:31;;;;;;;5.43;3.72;;;11.00;92.50;;;;;;5021980;28;20475;-84
2022/11/05 11:55:09;;;;;;;7.32;3.95;;;11.20;96.40;;;;;;5015938;28;20034;-84
2022/11/05 11:58:05;;;;;;;10.45;3.65;;;11.60;93.10;;;;;;5014183;28;20037;-83
2022/11/05 12:00:40;;;;;;;7.93;3.42;;;11.60;86.30;;;;;;5005914;28;20052;-86
2022/11/05 12:03:45;;;;;;;8.25;3.58;;;11.50;87.90;;;;;;5020732;28;20052;-85
2022/11/05 12:06:49;;;;;;;9.73;4.47;;;11.50;92.40;;;;;;5012173;28;20050;-84
2022/11/05 12:09:38;;;;;;;9.25;4.20;;;11.50;93.30;;;;;;4935366;29;20055;-85
2022/11/05 12:12:10;;;;;;;8.30;3.67;;;11.60;95.60;;;;;;4918692;29;20052;-85
2022/11/05 12:14:45;;;;;;;7.10;3.33;;;11.90;90.70;;;;;;4968914;28;20050;-85
2022/11/05 12:17:32;;;;;;;8.63;4.82;;;12.00;90.70;;;;;;4997665;28;20386;-85
2022/11/05 12:20:03;;;;;;;11.68;5.03;;;12.00;91.30;;;;;;4999464;28;20053;-84
2022/11/05 12:23:02;;;;;;;6.38;3.75;;;11.80;90.20;;;;;;4998574;28;20038;-86
2022/11/05 12:25:47;;;;;;;6.50;2.75;;;11.70;84.00;;;;;;4990095;28;20038;-86
2022/11/05 12:28:52;;;;;;;7.40;3.30;;;11.60;83.90;;;;;;5003819;28;20038;-85
2022/11/05 12:32:15;;;;;;;13.88;6.03;;;11.70;90.10;;;;;;5021375;28;20041;-85
2022/11/05 12:34:54;;;;;;;15.55;7.72;;;11.80;90.00;;;;;;4981173;28;20057;-82
2022/11/05 12:37:27;;;;;;;10.52;4.82;;;12.00;86.80;;;;;;5027025;28;20033;-78
2022/11/05 12:40:02;;;;;;;10.75;4.43;;;12.10;85.40;;;;;;5023424;28;20070;-77
2022/11/05 12:42:34;;;;;;;9.52;4.80;;;12.20;92.30;;;;;;5030997;28;20044;-80
2022/11/05 12:45:08;;;;;;;8.02;3.17;;;12.30;84.00;;;;;;5015718;28;20387;-77
2022/11/05 12:47:46;;;;;;;32.08;19.02;;;12.20;86.70;;;;;;5014116;28;20037;-78
2022/11/05 12:50:15;;;;;;;8.38;4.28;;;12.10;89.60;;;;;;4976744;28;20047;-80
2022/11/05 12:53:03;;;;;;;14.27;8.10;;;12.00;84.60;;;;;;5013876;28;20045;-79
2022/11/05 12:55:38;;;;;;;24.38;14.85;;;12.00;89.10;;;;;;5032633;28;20368;-78
2022/11/05 12:58:17;;;;;;;12.25;8.02;;;12.10;92.30;;;;;;5033567;28;20454;-78
2022/11/05 13:00:50;;;;;;;14.00;6.97;;;12.00;91.00;;;;;;5027766;28;20034;-77
2022/11/05 13:03:57;;;;;;;8.40;4.82;;;11.80;85.90;;;;;;5024918;28;20060;-78
2022/11/05 13:06:51;;;;;;;8.70;5.47;;;11.90;86.90;;;;;;4929828;29;20040;-79
2022/11/05 13:09:28;;;;;;;8.57;4.53;;;11.90;89.50;;;;;;5006373;28;20053;-79
2022/11/05 13:12:09;;;;;;;8.43;5.18;;;11.70;81.60;;;;;;5013929;28;20510;-79
2022/11/05 13:14:44;;;;;;;7.03;3.05;;;11.80;83.80;;;;;;5015803;28;20026;-79
2022/11/05 13:17:15;;;;;;;7.75;3.45;;;11.70;87.50;;;;;;5022021;28;20419;-77
2022/11/05 13:20:11;;;;;;;8.88;3.50;;;11.50;89.60;;;;;;5024861;28;20032;-77
2022/11/05 13:22:50;;;;;;;6.93;4.03;;;11.50;91.90;;;;;;5007817;28;20030;-79
2022/11/05 13:25:28;;;;;;;8.60;4.20;;;11.50;99.20;;;;;;4995490;28;20042;-79
2022/11/05 13:28:12;;;;;;;7.95;3.97;;;11.50;99.90;;;;;;5024666;28;20455;-79
2022/11/05 13:30:47;;;;;;;6.40;2.97;;;11.30;99.90;;;;;;5033299;28;20050;-80
2022/11/05 13:33:17;;;;;;;6.22;2.88;;;11.10;99.90;;;;;;4998129;28;20038;-80
2022/11/05 13:38:57;;;;;;;6.30;2.30;;;11.00;99.90;;;;;;5027476;28;20471;-79
2022/11/05 13:38:58;;;;;;;4.00;1.90;;;10.90;99.90;;;;;;5033507;28;20048;-79
2022/11/05 13:41:37;;;;;;;7.97;2.85;;;10.70;99.90;;;;;;5033827;28;20041;-79
2022/11/05 13:44:09;;;;;;;11.75;4.45;;;10.50;99.90;;;;;;5021323;28;20030;-77
2022/11/05 13:46:46;;;;;;;16.83;11.00;;;10.50;99.90;;;;;;5026920;28;20029;-78
2022/11/05 13:49:51;;;;;;;8.40;5.47;;;10.50;99.90;;;;;;4980374;28;20044;-78
2022/11/05 13:52:26;;;;;;;7.70;2.63;;;10.70;99.90;;;;;;4929102;29;20047;-79
2022/11/05 13:55:17;;;;;;;3.20;1.60;;;10.70;99.90;;;;;;5017379;28;20049;-78
2022/11/05 13:58:04;;;;;;;6.22;2.17;;;10.70;99.90;;;;;;5014006;28;20026;-79